Time;durP1;ratioP1;P1;durP2;ratioP2;P2;SDS_P1;SDS_P2;PMS_P1;PMS_P2;Temp;Humidity;BMP_temperature;BMP_pressure;BME280_temperature;BME280_humidity;BME280_pressure;Samples;Min_cycle;Max_cycle;Signal;HPM_P1;HPM_P2
2021/07/18 00:01:25;;;;;;;;;9.00;7.33;;;;;19.89;67.80;101975.09;5034137;28;45367;-70
2021/07/18 00:03:51;;;;;;;;;12.67;8.00;;;;;19.85;68.27;101979.06;5034180;28;45559;-69
2021/07/18 00:06:16;;;;;;;;;8.67;7.33;;;;;19.82;67.76;101974.00;5034473;28;45440;-69
2021/07/18 00:08:41;;;;;;;;;10.33;8.67;;;;;19.76;68.64;101979.91;5033959;28;45373;-66
2021/07/18 00:11:07;;;;;;;;;9.00;7.33;;;;;19.71;68.32;101971.50;5034212;28;45810;-70
2021/07/18 00:13:32;;;;;;;;;7.00;5.00;;;;;19.66;68.34;101968.41;5034732;28;45436;-69
2021/07/18 00:15:58;;;;;;;;;9.67;8.00;;;;;19.64;68.81;101968.53;5033935;28;45502;-69
2021/07/18 00:18:23;;;;;;;;;6.33;6.33;;;;;19.62;68.92;101973.19;5034005;28;45590;-67
2021/07/18 00:20:50;;;;;;;;;5.67;5.33;;;;;19.58;68.97;101972.63;5033285;28;46319;-68
2021/07/18 00:23:18;;;;;;;;;7.00;6.00;;;;;19.56;68.80;101971.91;5033805;28;45540;-68
2021/07/18 00:25:44;;;;;;;;;6.33;6.00;;;;;19.53;69.49;101968.72;5034540;28;45431;-69
2021/07/18 00:28:10;;;;;;;;;7.67;7.33;;;;;19.51;69.46;101968.84;5034298;28;45284;-68
2021/07/18 00:30:35;;;;;;;;;7.67;7.00;;;;;19.49;69.56;101978.81;5033200;28;45570;-69
2021/07/18 00:33:01;;;;;;;;;10.00;8.67;;;;;19.46;69.82;101979.09;5032558;28;45424;-67
2021/07/18 00:35:26;;;;;;;;;10.00;9.00;;;;;19.46;69.51;101981.78;5037075;28;45554;-69
2021/07/18 00:37:51;;;;;;;;;10.33;7.33;;;;;19.44;69.96;101981.88;5041049;28;45301;-69
2021/07/18 00:40:17;;;;;;;;;13.67;8.00;;;;;19.43;69.45;101979.38;5039912;28;47132;-68
2021/07/18 00:42:42;;;;;;;;;9.00;9.00;;;;;19.41;69.63;101978.69;5038407;28;45467;-68
2021/07/18 00:45:09;;;;;;;;;7.67;7.00;;;;;19.39;69.37;101972.66;5040203;28;45901;-68
2021/07/18 00:47:37;;;;;;;;;6.67;6.33;;;;;19.36;69.58;101978.28;5038101;28;45374;-68
2021/07/18 00:50:06;;;;;;;;;9.00;7.00;;;;;19.34;69.99;101965.06;5039570;28;46256;-67
2021/07/18 00:52:32;;;;;;;;;7.33;6.00;;;;;19.31;70.10;101970.69;5040297;28;45375;-67
2021/07/18 00:54:57;;;;;;;;;9.33;7.00;;;;;19.31;69.96;101975.19;5040081;28;45796;-67
2021/07/18 00:57:23;;;;;;;;;8.00;8.00;;;;;19.26;70.09;101967.59;5039828;28;45425;-65
2021/07/18 00:59:49;;;;;;;;;8.33;6.33;;;;;19.24;69.91;101965.09;5040800;28;46483;-67
2021/07/18 01:02:16;;;;;;;;;7.33;3.33;;;;;19.21;70.35;101970.69;5038624;28;45483;-68
2021/07/18 01:04:41;;;;;;;;;7.00;6.00;;;;;19.17;70.25;101971.13;5035160;28;45344;-67
2021/07/18 01:07:06;;;;;;;;;12.00;9.00;;;;;19.13;70.28;101973.22;5040023;28;45641;-67
2021/07/18 01:09:33;;;;;;;;;11.67;10.00;;;;;19.09;70.34;101975.31;5039938;28;45665;-68
2021/07/18 01:11:59;;;;;;;;;11.33;10.00;;;;;19.07;70.45;101968.44;5037523;28;45390;-66
2021/07/18 01:14:24;;;;;;;;;10.00;8.00;;;;;19.03;71.04;101972.38;5040119;28;45408;-67
2021/07/18 01:16:50;;;;;;;;;12.00;9.00;;;;;19.01;70.84;101979.69;5055452;28;45610;-67
2021/07/18 01:19:20;;;;;;;;;9.67;7.00;;;;;18.98;70.77;101986.13;5040363;28;45375;-67
2021/07/18 01:22:00;;;;;;;;;11.33;10.00;;;;;18.94;71.17;101980.22;5039524;28;45498;-67
2021/07/18 01:24:27;;;;;;;;;8.67;7.00;;;;;18.91;71.08;101975.16;5039519;28;45474;-68
2021/07/18 01:26:54;;;;;;;;;11.33;7.00;;;;;18.89;71.40;101971.81;5039292;28;45437;-64
2021/07/18 01:29:20;;;;;;;;;9.00;9.00;;;;;18.87;71.06;101984.38;5039922;28;45980;-64
2021/07/18 01:31:45;;;;;;;;;7.67;6.33;;;;;18.84;71.27;101971.34;5039137;28;45359;-64
2021/07/18 01:34:11;;;;;;;;;3.00;3.00;;;;;18.82;71.48;101981.28;5038031;28;45488;-67
2021/07/18 01:36:36;;;;;;;;;12.67;10.00;;;;;18.80;71.31;101972.59;5040166;28;45265;-67
2021/07/18 01:39:11;;;;;;;;;7.33;7.33;;;;;18.77;71.16;101972.88;5039772;28;46375;-64
2021/07/18 01:41:36;;;;;;;;;7.67;7.67;;;;;18.77;71.37;101983.50;5038907;28;45595;-65
2021/07/18 01:44:03;;;;;;;;;8.00;7.00;;;;;18.74;71.32;101979.31;5039191;28;45328;-66
2021/07/18 01:46:31;;;;;;;;;10.67;7.33;;;;;18.74;71.20;101981.13;5038786;28;45554;-66
2021/07/18 01:48:58;;;;;;;;;11.33;7.00;;;;;18.71;71.87;101976.06;5034189;28;46395;-65
2021/07/18 01:51:25;;;;;;;;;7.67;7.67;;;;;18.68;71.41;101979.00;5036203;28;45533;-65
2021/07/18 01:53:51;;;;;;;;;10.67;8.33;;;;;18.66;71.99;101965.03;5034560;28;45498;-66
2021/07/18 01:56:18;;;;;;;;;10.00;6.00;;;;;18.64;71.59;101963.34;5036221;28;45424;-65
2021/07/18 01:58:50;;;;;;;;;12.00;9.00;;;;;18.64;71.59;101965.13;5036134;28;45407;-66
2021/07/18 02:01:15;;;;;;;;;9.00;9.00;;;;;18.62;71.80;101969.78;5036074;28;45526;-66
2021/07/18 02:03:41;;;;;;;;;14.00;8.33;;;;;18.58;71.69;101969.19;5036315;28;45439;-68
2021/07/18 02:06:07;;;;;;;;;10.67;8.33;;;;;18.54;71.59;101959.81;5035355;28;45527;-66
2021/07/18 02:08:32;;;;;;;;;9.00;8.00;;;;;18.51;72.04;101952.06;5035906;28;46562;-68
2021/07/18 02:10:57;;;;;;;;;14.00;8.00;;;;;18.50;71.99;101954.88;5035874;28;45554;-66
2021/07/18 02:13:23;;;;;;;;;11.00;8.33;;;;;18.50;71.91;101965.53;5036752;28;45491;-69
2021/07/18 02:15:49;;;;;;;;;9.00;8.00;;;;;18.48;71.85;101963.00;5035988;28;46214;-66
2021/07/18 02:18:14;;;;;;;;;9.00;9.00;;;;;18.44;71.67;101962.44;5035769;28;47189;-68
2021/07/18 02:20:41;;;;;;;;;9.00;7.00;;;;;18.40;72.25;101966.34;5034920;28;45415;-69
2021/07/18 02:23:06;;;;;;;;;9.00;7.00;;;;;18.37;72.25;101958.66;5036040;28;45477;-68
2021/07/18 02:25:32;;;;;;;;;12.00;7.67;;;;;18.37;72.83;101961.31;5036808;28;45657;-66
2021/07/18 02:27:57;;;;;;;;;8.00;8.00;;;;;18.35;72.53;101960.59;5036379;28;46212;-66
2021/07/18 02:30:25;;;;;;;;;12.67;10.00;;;;;18.31;72.56;101957.34;5035367;28;45412;-65
2021/07/18 02:32:52;;;;;;;;;5.67;5.00;;;;;18.31;72.55;101957.34;5036301;28;46848;-65
2021/07/18 02:35:21;;;;;;;;;8.00;8.00;;;;;18.30;72.59;101955.66;5036417;28;45339;-65
2021/07/18 02:37:47;;;;;;;;;11.67;9.33;;;;;18.28;72.54;101951.44;5035641;28;45568;-67
2021/07/18 02:40:15;;;;;;;;;11.67;11.67;;;;;18.27;73.01;101969.25;5050637;28;46266;-65
2021/07/18 02:42:41;;;;;;;;;11.67;7.00;;;;;18.23;72.91;101951.88;5035715;28;45626;-65
2021/07/18 02:45:09;;;;;;;;;10.00;8.67;;;;;18.22;72.94;101952.84;5035785;28;45543;-66
2021/07/18 02:47:35;;;;;;;;;9.67;8.00;;;;;18.21;72.90;101961.78;5035718;28;46281;-66
2021/07/18 02:50:01;;;;;;;;;6.00;6.00;;;;;18.19;72.75;101958.44;5034871;28;45512;-66
2021/07/18 02:52:26;;;;;;;;;12.33;10.00;;;;;18.16;72.80;101950.72;5035251;28;45738;-65
2021/07/18 02:54:54;;;;;;;;;10.00;7.00;;;;;18.13;72.97;101943.84;5033852;28;45527;-67
2021/07/18 02:57:19;;;;;;;;;15.33;9.67;;;;;18.12;73.20;101951.97;5030309;28;46231;-65
2021/07/18 02:59:45;;;;;;;;;9.00;8.67;;;;;18.09;73.33;101957.56;5022665;28;45373;-67
2021/07/18 03:02:10;;;;;;;;;13.00;8.00;;;;;18.03;73.73;101950.94;5035324;28;45582;-66
2021/07/18 03:04:36;;;;;;;;;8.33;7.00;;;;;18.02;74.12;101959.06;5035786;28;45598;-67
2021/07/18 03:07:01;;;;;;;;;9.67;8.00;;;;;17.98;73.61;101955.81;5034871;28;46192;-65
2021/07/18 03:09:27;;;;;;;;;12.00;8.67;;;;;17.96;73.86;101961.25;5035185;28;45481;-65
2021/07/18 03:11:53;;;;;;;;;10.33;8.33;;;;;17.95;73.72;101950.78;5035254;28;45360;-65
2021/07/18 03:14:19;;;;;;;;;10.67;8.00;;;;;17.92;73.54;101949.19;5035205;28;45538;-68
2021/07/18 03:16:47;;;;;;;;;7.67;7.67;;;;;17.90;73.77;101943.16;5035844;28;46184;-65
2021/07/18 03:19:13;;;;;;;;;7.33;7.00;;;;;17.87;73.73;101938.09;5034549;28;46039;-66
2021/07/18 03:21:38;;;;;;;;;11.00;8.67;;;;;17.88;73.91;101950.44;5034638;28;45481;-66
2021/07/18 03:24:04;;;;;;;;;11.00;7.00;;;;;17.84;73.73;101943.69;5034495;28;45566;-65
2021/07/18 03:26:29;;;;;;;;;10.33;8.33;;;;;17.83;73.90;101946.50;5034545;28;46358;-66
2021/07/18 03:28:55;;;;;;;;;10.67;7.00;;;;;17.83;73.97;101946.50;5034914;28;45612;-65
2021/07/18 03:31:20;;;;;;;;;10.67;8.00;;;;;17.80;73.87;101936.97;5035333;28;45677;-65
2021/07/18 03:33:46;;;;;;;;;15.00;8.67;;;;;17.77;73.75;101935.41;5035205;28;45359;-68
2021/07/18 03:36:11;;;;;;;;;10.00;9.33;;;;;17.77;74.16;101942.53;5035625;28;46469;-66
2021/07/18 03:38:37;;;;;;;;;10.67;8.33;;;;;17.75;74.11;101933.88;5034467;28;45420;-67
2021/07/18 03:41:02;;;;;;;;;9.67;8.67;;;;;17.72;74.24;101937.63;5034979;28;45296;-66
2021/07/18 03:43:28;;;;;;;;;11.67;10.67;;;;;17.72;74.15;101936.75;5050768;28;45483;-66
2021/07/18 03:45:53;;;;;;;;;12.00;9.67;;;;;17.70;74.49;101942.22;5026895;28;45979;-66
2021/07/18 03:48:19;;;;;;;;;9.67;8.00;;;;;17.68;74.59;101938.00;5027221;28;45601;-64
2021/07/18 03:50:44;;;;;;;;;10.00;9.00;;;;;17.69;74.58;101945.84;5034761;28;45365;-65
2021/07/18 03:53:09;;;;;;;;;12.00;9.00;;;;;17.69;74.61;101950.31;5034383;28;45582;-65
2021/07/18 03:55:35;;;;;;;;;8.67;8.33;;;;;17.67;74.31;101944.28;5034997;28;45654;-65
2021/07/18 03:58:00;;;;;;;;;10.00;8.00;;;;;17.63;74.58;101952.53;5034153;28;45311;-66
2021/07/18 04:00:25;;;;;;;;;8.67;8.67;;;;;17.62;74.62;101950.84;5033994;28;45437;-65
2021/07/18 04:02:51;;;;;;;;;9.33;8.67;;;;;17.61;74.58;101957.13;5050283;28;45482;-65
2021/07/18 04:05:16;;;;;;;;;12.67;10.33;;;;;17.59;74.58;101951.13;5034593;28;46124;-66
2021/07/18 04:07:41;;;;;;;;;8.67;8.00;;;;;17.59;74.64;101951.13;5034776;28;45533;-66
2021/07/18 04:10:07;;;;;;;;;11.00;9.00;;;;;17.56;74.77;101948.69;5033555;28;45718;-66
2021/07/18 04:12:33;;;;;;;;;11.00;8.33;;;;;17.57;74.69;101958.34;5034515;28;45485;-66
2021/07/18 04:14:58;;;;;;;;;8.67;8.67;;;;;17.57;74.67;101955.69;5034077;28;46072;-66
2021/07/18 04:17:24;;;;;;;;;8.00;7.33;;;;;17.57;74.72;101954.88;5033552;28;45529;-66
2021/07/18 04:19:49;;;;;;;;;13.33;7.33;;;;;17.55;74.61;101960.28;5022170;28;45446;-64
2021/07/18 04:22:15;;;;;;;;;11.33;8.00;;;;;17.54;74.64;101963.94;5033043;28;45334;-64
2021/07/18 04:24:40;;;;;;;;;12.00;7.67;;;;;17.55;74.65;101960.28;5033421;28;46471;-66
2021/07/18 04:27:06;;;;;;;;;9.33;8.00;;;;;17.54;74.64;101963.94;5033441;28;45453;-63
2021/07/18 04:29:31;;;;;;;;;8.00;8.00;;;;;17.55;74.48;101964.78;5034284;28;45475;-64
2021/07/18 04:31:56;;;;;;;;;8.67;6.67;;;;;17.55;74.35;101970.09;5030615;28;45342;-65
2021/07/18 04:34:22;;;;;;;;;10.67;8.33;;;;;17.54;74.55;101969.25;5034198;28;46178;-65
2021/07/18 04:36:47;;;;;;;;;13.00;9.67;;;;;17.54;74.13;101974.56;5032990;28;45340;-66
2021/07/18 04:39:13;;;;;;;;;9.67;8.67;;;;;17.52;74.61;101965.03;5033973;28;45596;-64
2021/07/18 04:41:38;;;;;;;;;9.67;7.00;;;;;17.53;74.37;101966.69;5034490;28;45313;-65
2021/07/18 04:44:05;;;;;;;;;10.00;9.00;;;;;17.54;74.32;101969.25;5033397;28;46068;-67
2021/07/18 04:46:30;;;;;;;;;9.00;8.00;;;;;17.56;74.50;101971.78;5034616;28;45416;-65
2021/07/18 04:48:56;;;;;;;;;11.67;8.67;;;;;17.54;74.73;101969.25;5033805;28;45502;-65
2021/07/18 04:51:21;;;;;;;;;8.67;8.67;;;;;17.55;74.34;101978.88;5033436;28;45464;-65
2021/07/18 04:53:46;;;;;;;;;10.33;9.33;;;;;17.53;74.57;101972.88;5033849;28;45415;-65
2021/07/18 04:56:12;;;;;;;;;7.00;6.67;;;;;17.56;74.51;101977.91;5033707;28;45476;-64
2021/07/18 04:58:37;;;;;;;;;8.00;7.00;;;;;17.56;74.47;101983.22;5034166;28;45329;-65
2021/07/18 05:01:03;;;;;;;;;8.00;3.67;;;;;17.55;74.42;101992.16;5031183;28;45507;-65
2021/07/18 05:03:28;;;;;;;;;4.67;4.67;;;;;17.53;74.03;101983.50;5033637;28;45994;-65
2021/07/18 05:05:54;;;;;;;;;10.33;8.00;;;;;17.55;74.27;101992.16;5033104;28;45485;-66
2021/07/18 05:08:20;;;;;;;;;6.33;5.33;;;;;17.59;74.18;101993.63;5033857;28;45546;-65
2021/07/18 05:10:46;;;;;;;;;9.00;7.00;;;;;17.61;74.21;101996.16;5033848;28;45352;-65
2021/07/18 05:13:11;;;;;;;;;8.33;7.67;;;;;17.62;73.99;101992.53;5033638;28;45392;-65
2021/07/18 05:15:37;;;;;;;;;6.67;6.33;;;;;17.64;74.05;101995.88;5033719;28;45376;-65
2021/07/18 05:18:10;;;;;;;;;7.33;7.33;;;;;17.67;73.92;101990.31;5033263;28;45442;-65
2021/07/18 05:20:36;;;;;;;;;9.00;7.00;;;;;17.71;73.74;101990.88;5032178;28;45484;-67
2021/07/18 05:23:01;;;;;;;;;9.00;7.33;;;;;17.74;73.58;101990.63;5035507;28;46485;-66
2021/07/18 05:25:27;;;;;;;;;7.00;7.00;;;;;17.76;73.61;101989.53;5037434;28;45301;-65
2021/07/18 05:27:52;;;;;;;;;6.67;6.67;;;;;17.79;73.62;101993.75;5036884;28;45321;-66
2021/07/18 05:30:18;;;;;;;;;6.00;6.00;;;;;17.83;73.39;101989.03;5036726;28;45443;-65
2021/07/18 05:32:43;;;;;;;;;9.67;6.00;;;;;17.88;73.46;101992.97;5036620;28;45423;-64
2021/07/18 05:35:10;;;;;;;;;6.00;6.00;;;;;17.93;73.26;101988.13;5035566;28;45313;-65
2021/07/18 05:37:35;;;;;;;;;8.67;5.67;;;;;17.98;72.92;101993.88;5037308;28;45379;-65
2021/07/18 05:40:02;;;;;;;;;7.00;6.67;;;;;18.02;72.90;101993.59;5035994;28;45467;-65
2021/07/18 05:42:28;;;;;;;;;11.00;7.00;;;;;18.05;72.67;101996.84;5036067;28;45439;-65
2021/07/18 05:44:53;;;;;;;;;4.00;4.00;;;;;18.09;72.53;102000.94;5036698;28;45483;-65
2021/07/18 05:47:18;;;;;;;;;5.67;5.00;;;;;18.15;72.48;101988.94;5036719;28;45414;-66
2021/07/18 05:49:44;;;;;;;;;9.00;8.00;;;;;18.53;72.52;101998.03;5036897;28;45542;-65
2021/07/18 05:52:09;;;;;;;;;8.00;5.00;;;;;19.35;71.07;101989.91;5036085;28;47914;-65
2021/07/18 05:54:35;;;;;;;;;8.33;4.00;;;;;20.32;68.28;101999.53;5036241;28;45491;-65
2021/07/18 05:57:00;;;;;;;;;9.67;6.33;;;;;21.23;66.49;102005.88;5036451;28;45301;-65
2021/07/18 05:59:26;;;;;;;;;4.33;4.33;;;;;22.02;63.56;102000.63;5036414;28;45510;-65
2021/07/18 06:01:51;;;;;;;;;3.67;3.67;;;;;22.80;62.81;102004.97;5036410;28;46290;-67
2021/07/18 06:04:17;;;;;;;;;7.00;5.33;;;;;23.57;60.23;102001.19;5036638;28;45463;-66
2021/07/18 06:06:42;;;;;;;;;4.67;4.67;;;;;24.16;58.14;102003.59;5036490;28;45450;-65
2021/07/18 06:09:08;;;;;;;;;5.33;4.67;;;;;24.70;57.48;101999.34;5036460;28;50097;-65
2021/07/18 06:11:33;;;;;;;;;7.00;4.00;;;;;25.24;56.94;101994.97;5036531;28;46269;-67
2021/07/18 06:13:59;;;;;;;;;9.00;6.00;;;;;25.53;54.90;102003.13;5036717;28;45236;-66
2021/07/18 06:16:25;;;;;;;;;5.00;5.00;;;;;25.19;54.55;102007.06;5036826;28;45490;-66
2021/07/18 06:18:50;;;;;;;;;7.33;6.67;;;;;24.58;55.42;102003.44;5036444;28;45551;-65
2021/07/18 06:21:15;;;;;;;;;5.67;5.00;;;;;23.88;56.26;101998.63;5035047;28;46943;-66
2021/07/18 06:23:42;;;;;;;;;2.67;1.33;;;;;23.28;56.94;101997.19;5036257;28;45450;-65
2021/07/18 06:26:07;;;;;;;;;4.67;4.67;;;;;22.82;57.45;102002.13;5036308;28;45549;-66
2021/07/18 06:28:33;;;;;;;;;6.33;2.00;;;;;22.44;58.73;102004.34;5037044;28;45483;-65
2021/07/18 06:30:58;;;;;;;;;5.00;3.67;;;;;22.06;58.80;102002.81;5035699;28;46530;-66
2021/07/18 06:33:23;;;;;;;;;5.33;5.00;;;;;21.76;60.18;102006.81;5034495;28;45422;-65
2021/07/18 06:35:49;;;;;;;;;5.33;4.67;;;;;21.48;60.23;102014.91;5025464;28;45509;-65
2021/07/18 06:38:15;;;;;;;;;5.00;5.00;;;;;21.22;61.10;102014.88;5036646;28;45341;-65
2021/07/18 06:40:41;;;;;;;;;5.00;5.00;;;;;21.03;61.52;102022.06;5035989;28;46002;-66
2021/07/18 06:43:06;;;;;;;;;5.67;5.00;;;;;20.87;62.21;102028.03;5035964;28;45380;-67
2021/07/18 06:45:32;;;;;;;;;7.00;3.67;;;;;20.73;62.21;102025.88;5035836;28;45359;-68
2021/07/18 06:47:57;;;;;;;;;5.00;5.00;;;;;20.58;63.12;102022.84;5035976;28;45696;-66
2021/07/18 06:50:23;;;;;;;;;4.33;4.00;;;;;20.49;63.05;102019.25;5035729;28;47203;-65
2021/07/18 06:52:48;;;;;;;;;5.33;5.00;;;;;20.41;63.58;102011.97;5036046;28;45333;-67
2021/07/18 06:55:14;;;;;;;;;6.33;5.33;;;;;20.37;63.45;102010.59;5036022;28;45255;-65
2021/07/18 06:57:45;;;;;;;;;5.33;3.33;;;;;20.35;64.76;102009.06;5035830;28;45475;-65
2021/07/18 07:00:12;;;;;;;;;4.33;4.33;;;;;20.34;64.65;102010.03;5034849;28;46567;-66
2021/07/18 07:02:37;;;;;;;;;5.00;5.00;;;;;20.31;64.47;102005.84;5034550;28;45334;-66
2021/07/18 07:05:03;;;;;;;;;5.00;4.00;;;;;20.27;64.63;102005.28;5035660;28;45366;-66
2021/07/18 07:07:29;;;;;;;;;5.00;5.00;;;;;20.24;64.75;102005.59;5034985;28;45500;-66
2021/07/18 07:09:54;;;;;;;;;4.00;4.00;;;;;20.23;65.19;102003.91;5035350;28;46311;-66
2021/07/18 07:12:19;;;;;;;;;6.67;5.67;;;;;20.26;65.36;102003.63;5035275;28;45415;-67
2021/07/18 07:14:45;;;;;;;;;7.33;6.00;;;;;20.32;64.68;102006.66;5035368;28;45371;-65
2021/07/18 07:17:10;;;;;;;;;6.33;5.00;;;;;20.34;65.18;102010.03;5035825;28;45585;-66
2021/07/18 07:19:36;;;;;;;;;4.00;4.00;;;;;20.31;64.91;102013.84;5035819;28;45596;-65
2021/07/18 07:22:01;;;;;;;;;4.00;4.00;;;;;20.32;65.08;102018.19;5035256;28;45465;-66
2021/07/18 07:24:27;;;;;;;;;12.67;11.00;;;;;20.32;65.11;102014.66;5035741;28;45498;-64
2021/07/18 07:26:53;;;;;;;;;8.33;5.33;;;;;20.33;65.11;102005.69;5035220;28;45442;-65
2021/07/18 07:29:18;;;;;;;;;5.33;3.67;;;;;20.33;65.32;102003.00;5035028;28;47376;-66
2021/07/18 07:31:43;;;;;;;;;5.33;4.00;;;;;20.39;65.29;102013.09;5035240;28;45605;-66
2021/07/18 07:34:09;;;;;;;;;6.00;4.00;;;;;20.43;64.93;102007.34;5035322;28;45391;-66
2021/07/18 07:36:34;;;;;;;;;6.00;6.00;;;;;20.47;65.20;102009.69;5035335;28;45501;-67
2021/07/18 07:38:59;;;;;;;;;6.00;4.00;;;;;20.50;65.14;102004.91;5034841;28;46098;-65
2021/07/18 07:41:25;;;;;;;;;2.00;2.00;;;;;20.54;64.69;102008.97;5034879;28;45360;-65
2021/07/18 07:43:56;;;;;;;;;5.33;4.00;;;;;20.57;64.42;102010.50;5035017;28;45231;-65
2021/07/18 07:46:21;;;;;;;;;5.67;5.67;;;;;20.59;64.94;102004.00;5034316;28;45669;-66
2021/07/18 07:48:47;;;;;;;;;4.67;4.67;;;;;20.61;64.93;102010.06;5034439;28;46564;-65
2021/07/18 07:51:12;;;;;;;;;5.00;3.33;;;;;20.64;64.39;102010.72;5034767;28;45515;-67
2021/07/18 07:53:37;;;;;;;;;7.67;5.33;;;;;20.67;64.77;102018.47;5034637;28;45533;-63
2021/07/18 07:56:03;;;;;;;;;3.67;3.00;;;;;20.72;64.63;102002.84;5034753;28;45419;-65
2021/07/18 07:58:30;;;;;;;;;3.00;3.00;;;;;20.80;64.95;102016.28;5033935;28;46069;-65
2021/07/18 08:00:55;;;;;;;;;4.00;4.00;;;;;20.88;64.19;102007.53;5034733;28;45469;-66
2021/07/18 08:03:21;;;;;;;;;4.00;3.00;;;;;20.91;63.65;102013.41;5034811;28;45441;-64
2021/07/18 08:05:46;;;;;;;;;3.00;3.00;;;;;20.98;63.92;102012.78;5035109;28;45585;-66
2021/07/18 08:08:12;;;;;;;;;4.33;3.00;;;;;21.04;63.57;102009.53;5034800;28;45379;-68
2021/07/18 08:10:38;;;;;;;;;4.00;4.00;;;;;21.11;63.41;102007.94;5035465;28;45460;-66
2021/07/18 08:13:04;;;;;;;;;4.33;3.00;;;;;21.18;62.54;102011.66;5034629;28;45288;-66
2021/07/18 08:15:30;;;;;;;;;6.00;5.00;;;;;21.25;63.05;102010.06;5034951;28;45565;-65
2021/07/18 08:17:55;;;;;;;;;4.67;4.67;;;;;21.35;62.89;102014.47;5034864;28;45328;-66
2021/07/18 08:20:24;;;;;;;;;4.67;2.67;;;;;21.43;62.58;102006.53;5034077;28;45428;-67
2021/07/18 08:22:52;;;;;;;;;3.00;1.67;;;;;21.53;62.32;102001.09;5034848;28;45357;-66
2021/07/18 08:25:19;;;;;;;;;1.67;1.67;;;;;21.61;61.21;101995.00;5034829;28;45408;-65
2021/07/18 08:27:44;;;;;;;;;4.00;3.00;;;;;21.67;60.82;101997.88;5033603;28;45398;-65
2021/07/18 08:30:11;;;;;;;;;2.33;2.33;;;;;21.73;60.57;101993.75;5034403;28;45420;-65
2021/07/18 08:32:37;;;;;;;;;2.67;2.67;;;;;21.76;60.70;101975.56;5033392;28;45379;-65
2021/07/18 08:35:04;;;;;;;;;2.00;2.00;;;;;21.86;60.50;101982.63;5034388;28;45408;-66
2021/07/18 08:37:29;;;;;;;;;3.00;3.00;;;;;21.93;59.80;101984.50;5034986;28;46136;-66
2021/07/18 08:39:55;;;;;;;;;3.00;3.00;;;;;22.02;59.56;101988.06;5034094;28;45443;-65
2021/07/18 08:42:20;;;;;;;;;2.00;2.00;;;;;22.06;59.33;101984.09;5032875;28;45576;-66
2021/07/18 08:44:46;;;;;;;;;6.67;3.00;;;;;22.08;58.49;101982.09;5034800;28;45506;-65
2021/07/18 08:47:11;;;;;;;;;3.00;3.00;;;;;22.10;59.23;101971.22;5034302;28;46714;-66
2021/07/18 08:49:38;;;;;;;;;2.00;2.00;;;;;22.17;58.08;101977.63;5034956;28;45419;-66
2021/07/18 08:52:04;;;;;;;;;2.33;2.00;;;;;22.21;57.88;101987.00;5034667;28;47316;-63
2021/07/18 08:54:31;;;;;;;;;3.00;3.00;;;;;22.24;58.00;101978.66;5033526;28;45450;-66
2021/07/18 08:57:00;;;;;;;;;2.00;2.00;;;;;22.28;57.23;101975.66;5035585;28;45521;-65
2021/07/18 08:59:27;;;;;;;;;3.33;2.00;;;;;22.33;57.67;101976.03;5037614;28;45472;-66
2021/07/18 09:01:53;;;;;;;;;3.33;3.33;;;;;22.38;57.68;101971.88;5037858;28;45352;-65
2021/07/18 09:04:19;;;;;;;;;5.67;1.67;;;;;22.47;57.45;101977.25;5052529;28;45341;-66
2021/07/18 09:06:48;;;;;;;;;5.67;2.67;;;;;22.55;57.14;101977.31;5037305;28;46351;-66
2021/07/18 09:09:16;;;;;;;;;0.67;0.33;;;;;22.63;56.88;101981.84;5037330;28;45551;-66
2021/07/18 09:11:43;;;;;;;;;2.00;2.00;;;;;22.68;56.35;101982.19;5036933;28;45475;-66
2021/07/18 09:14:11;;;;;;;;;2.00;2.00;;;;;22.73;55.99;101977.19;5035925;28;45592;-65
2021/07/18 09:16:39;;;;;;;;;3.33;2.00;;;;;22.80;56.20;101972.00;5037994;28;46378;-65
2021/07/18 09:19:18;;;;;;;;;1.33;1.33;;;;;22.88;56.20;101988.91;5036713;28;45525;-66
2021/07/18 09:22:03;;;;;;;;;2.00;1.00;;;;;22.96;55.34;101977.34;5036749;28;45249;-66
2021/07/18 09:24:50;;;;;;;;;5.00;1.00;;;;;23.11;55.22;101969.50;5026274;28;45598;-67
2021/07/18 09:27:19;;;;;;;;;3.33;2.00;;;;;23.53;53.95;101965.84;5025693;28;45554;-66
2021/07/18 09:30:06;;;;;;;;;3.67;1.33;;;;;24.00;54.26;101960.72;5037117;28;45517;-67
2021/07/18 09:32:34;;;;;;;;;2.00;2.00;;;;;24.61;52.55;101977.06;5023456;28;45450;-65
2021/07/18 09:35:06;;;;;;;;;4.00;3.33;;;;;25.10;52.04;101964.31;5037534;28;45312;-67
2021/07/18 09:37:34;;;;;;;;;0.00;0.00;;;;;25.28;49.57;101972.06;5036247;28;46229;-66
2021/07/18 09:40:11;;;;;;;;;3.00;3.00;;;;;25.31;48.37;101966.31;5036322;28;45505;-66
2021/07/18 09:42:49;;;;;;;;;1.00;1.00;;;;;25.32;49.36;101962.63;5035801;28;45596;-66
2021/07/18 09:45:18;;;;;;;;;1.00;1.00;;;;;25.32;49.34;101957.25;5037226;28;45474;-65
2021/07/18 09:47:59;;;;;;;;;1.00;1.00;;;;;25.39;48.38;101963.59;5036803;28;46178;-66
2021/07/18 09:50:28;;;;;;;;;0.00;0.00;;;;;25.42;47.66;101952.47;5022446;28;45321;-68
2021/07/18 09:53:13;;;;;;;;;1.75;1.25;;;;;25.47;47.27;101958.13;5037158;28;45341;-67
2021/07/18 09:55:54;;;;;;;;;1.25;1.25;;;;;25.47;47.11;101965.38;5036705;28;45320;-66
2021/07/18 09:58:23;;;;;;;;;1.00;1.00;;;;;25.34;46.77;101963.28;5036303;28;45983;-66
2021/07/18 10:00:50;;;;;;;;;1.50;1.50;;;;;25.20;46.25;101954.16;5036317;28;45470;-66
2021/07/18 10:03:23;;;;;;;;;2.00;1.75;;;;;25.08;47.05;101961.81;5036713;28;45464;-67
2021/07/18 10:06:05;;;;;;;;;1.50;1.50;;;;;25.01;47.94;101960.84;5036812;28;45554;-66
2021/07/18 10:08:30;;;;;;;;;2.33;1.33;;;;;24.99;47.51;101963.72;5021819;28;46362;-67
2021/07/18 10:10:56;;;;;;;;;3.00;1.00;;;;;24.97;47.53;101952.31;5036526;28;49776;-65
2021/07/18 10:13:22;;;;;;;;;2.75;2.00;;;;;24.96;47.57;101955.19;5069534;28;45355;-67
2021/07/18 10:15:48;;;;;;;;;0.25;0.25;;;;;24.98;46.61;101962.06;5036704;28;45544;-66
2021/07/18 10:18:13;;;;;;;;;3.00;1.67;;;;;24.97;46.07;101951.50;5036378;28;45324;-66
2021/07/18 10:20:39;;;;;;;;;3.33;2.00;;;;;24.96;45.93;101953.34;5036085;28;45404;-66
2021/07/18 10:23:06;;;;;;;;;2.00;2.00;;;;;24.97;46.49;101948.81;5036315;28;45674;-66
2021/07/18 10:25:32;;;;;;;;;2.00;2.00;;;;;24.97;45.46;101948.81;5037210;28;45326;-66
2021/07/18 10:27:58;;;;;;;;;3.67;2.00;;;;;24.96;46.29;101947.97;5036006;28;46247;-66
2021/07/18 10:30:25;;;;;;;;;1.67;1.67;;;;;24.99;45.33;101952.16;5036286;28;45506;-66
2021/07/18 10:32:52;;;;;;;;;2.00;2.00;;;;;24.99;47.22;101947.59;5036712;28;45466;-67
2021/07/18 10:35:20;;;;;;;;;2.67;2.00;;;;;25.02;46.23;101947.22;5036571;28;45385;-68
2021/07/18 10:37:45;;;;;;;;;3.67;3.00;;;;;25.07;45.45;101954.75;5036508;28;45693;-65
2021/07/18 10:40:25;;;;;;;;;3.67;3.00;;;;;25.10;45.40;101942.81;5035961;28;45578;-65
2021/07/18 10:42:51;;;;;;;;;3.00;2.00;;;;;25.13;46.30;101943.28;5036172;28;45437;-66
2021/07/18 10:45:21;;;;;;;;;2.00;2.00;;;;;25.15;45.54;101940.41;5036446;28;45290;-66
2021/07/18 10:48:04;;;;;;;;;3.00;3.00;;;;;25.15;45.94;101940.41;5035714;28;46407;-67
2021/07/18 10:50:50;;;;;;;;;7.00;4.00;;;;;25.14;45.56;101934.22;5028180;28;45428;-67
2021/07/18 10:53:20;;;;;;;;;3.00;2.00;;;;;25.20;45.98;101936.16;5020106;28;45368;-67
2021/07/18 10:55:46;;;;;;;;;6.33;4.67;;;;;25.23;45.67;101937.66;5032240;28;45508;-66
2021/07/18 10:58:11;;;;;;;;;4.33;2.67;;;;;25.28;45.28;101929.06;5023543;28;45412;-65
2021/07/18 11:00:47;;;;;;;;;2.67;2.00;;;;;25.31;45.20;101931.34;5029634;28;45538;-67
2021/07/18 11:03:12;;;;;;;;;3.00;3.00;;;;;25.34;45.22;101925.63;5028119;28;45492;-67
2021/07/18 11:05:45;;;;;;;;;2.00;1.00;;;;;25.37;45.15;101927.97;5035700;28;45363;-67
2021/07/18 11:08:11;;;;;;;;;3.33;3.33;;;;;25.41;45.32;101912.31;5034478;28;46558;-65
2021/07/18 11:10:53;;;;;;;;;4.33;3.33;;;;;25.43;45.79;101905.75;5035921;28;45235;-68
2021/07/18 11:13:19;;;;;;;;;3.00;3.00;;;;;25.50;46.51;101911.22;5029359;28;45515;-67
2021/07/18 11:15:44;;;;;;;;;4.00;3.00;;;;;25.59;46.39;101909.28;5032022;28;45522;-67
2021/07/18 11:18:11;;;;;;;;;3.00;3.00;;;;;25.64;46.65;101910.38;5035542;28;46393;-66
2021/07/18 11:20:44;;;;;;;;;4.33;4.00;;;;;25.67;44.86;101911.84;5034020;28;45528;-66
2021/07/18 11:23:11;;;;;;;;;4.00;4.00;;;;;25.66;44.59;101910.19;5034092;28;45473;-65